Time;durP1;ratioP1;P1;durP2;ratioP2;P2;SDS_P1;SDS_P2;PMS_P1;PMS_P2;Temp;Humidity;BMP_temperature;BMP_pressure;BME280_temperature;BME280_humidity;BME280_pressure;Samples;Min_cycle;Max_cycle;Signal;HPM_P1;HPM_P2
2021/10/12 00:01:16;;;;;;;0.40;0.20;;;9.50;99.90;;;;;;5090710;28;20468;-71
2021/10/12 00:03:42;;;;;;;0.40;0.30;;;9.10;99.90;;;;;;5090015;28;20390;-70
2021/10/12 00:06:08;;;;;;;0.40;0.25;;;8.80;99.90;;;;;;5090671;28;20785;-70
2021/10/12 00:08:33;;;;;;;0.40;0.30;;;8.60;99.90;;;;;;5091219;28;20421;-70
2021/10/12 00:11:00;;;;;;;0.50;0.50;;;9.10;99.90;;;;;;5091211;28;20851;-70
2021/10/12 00:13:26;;;;;;;0.40;0.40;;;9.30;99.90;;;;;;5090642;28;20409;-71
2021/10/12 00:15:52;;;;;;;0.70;0.70;;;8.20;99.90;;;;;;5091238;28;20374;-70
2021/10/12 00:18:18;;;;;;;0.40;0.30;;;8.20;99.90;;;;;;5090255;28;20428;-71
2021/10/12 00:20:43;;;;;;;0.60;0.60;;;8.90;99.90;;;;;;5091060;28;20379;-70
2021/10/12 00:23:09;;;;;;;0.40;0.30;;;9.00;99.90;;;;;;5090262;28;20454;-70
2021/10/12 00:25:35;;;;;;;0.90;0.80;;;8.90;99.90;;;;;;5091319;28;20396;-72
2021/10/12 00:28:01;;;;;;;0.80;0.80;;;8.90;99.90;;;;;;5090574;28;20431;-70
2021/10/12 00:30:26;;;;;;;0.40;0.20;;;8.90;99.90;;;;;;5090011;28;20374;-70
2021/10/12 00:32:53;;;;;;;1.10;1.00;;;8.80;99.90;;;;;;5090686;28;20566;-71
2021/10/12 00:35:18;;;;;;;0.50;0.40;;;8.70;99.90;;;;;;5088829;28;20875;-71
2021/10/12 00:37:44;;;;;;;0.40;0.20;;;9.30;99.90;;;;;;5090286;28;20420;-71
2021/10/12 00:40:10;;;;;;;0.40;0.20;;;8.70;99.90;;;;;;5090114;28;20449;-70
2021/10/12 00:42:36;;;;;;;0.40;0.30;;;8.90;99.90;;;;;;5090980;28;20536;-71
2021/10/12 00:45:05;;;;;;;0.40;0.40;;;9.20;99.90;;;;;;5090627;28;20382;-71
2021/10/12 00:47:30;;;;;;;0.60;0.60;;;8.90;99.90;;;;;;5090540;28;20779;-71
2021/10/12 00:49:56;;;;;;;0.40;0.20;;;8.80;99.90;;;;;;5090721;28;20467;-71
2021/10/12 00:52:22;;;;;;;0.40;0.20;;;9.60;99.90;;;;;;5089599;28;20900;-70
2021/10/12 00:54:47;;;;;;;0.80;0.60;;;8.90;99.90;;;;;;5090501;28;20475;-71
2021/10/12 00:57:14;;;;;;;0.47;0.40;;;8.80;99.90;;;;;;5089539;28;20378;-70
2021/10/12 00:59:40;;;;;;;0.90;0.90;;;9.00;99.90;;;;;;5090435;28;20490;-70
2021/10/12 01:02:07;;;;;;;0.40;0.20;;;8.80;99.90;;;;;;5089757;28;20397;-70
2021/10/12 01:04:33;;;;;;;0.70;0.70;;;9.20;99.90;;;;;;5090255;28;20386;-70
2021/10/12 01:06:59;;;;;;;0.40;0.20;;;9.30;99.90;;;;;;5090430;28;20378;-70
2021/10/12 01:09:24;;;;;;;0.40;0.30;;;8.60;99.90;;;;;;5089830;28;20370;-70
2021/10/12 01:11:50;;;;;;;0.60;0.50;;;9.10;99.90;;;;;;5089135;28;20866;-70
2021/10/12 01:14:16;;;;;;;0.50;0.50;;;8.80;99.90;;;;;;5089781;28;20406;-71
2021/10/12 01:16:42;;;;;;;0.40;0.20;;;;;;;;;;5090340;28;20374;-71
2021/10/12 01:19:09;;;;;;;0.40;0.30;;;8.40;99.90;;;;;;5090083;28;20374;-71
2021/10/12 01:21:45;;;;;;;0.40;0.30;;;8.80;99.90;;;;;;5090255;28;20391;-71
2021/10/12 01:24:11;;;;;;;0.40;0.20;;;8.70;99.90;;;;;;5089703;28;20738;-70
2021/10/12 01:26:40;;;;;;;0.70;0.70;;;8.80;99.90;;;;;;5090190;28;20861;-70
2021/10/12 01:29:07;;;;;;;0.90;0.90;;;9.40;99.90;;;;;;5090234;28;20750;-70
2021/10/12 01:31:33;;;;;;;0.50;0.50;;;9.00;99.90;;;;;;5090473;28;20389;-70
2021/10/12 01:34:00;;;;;;;0.70;0.60;;;8.60;99.90;;;;;;5090090;28;20397;-70
2021/10/12 01:36:26;;;;;;;0.40;0.30;;;10.20;99.90;;;;;;5089512;28;20507;-70
2021/10/12 01:38:52;;;;;;;0.60;0.60;;;9.00;99.90;;;;;;5090172;28;20374;-71
2021/10/12 01:41:18;;;;;;;0.40;0.40;;;9.10;99.90;;;;;;5089564;28;20387;-71
2021/10/12 01:43:43;;;;;;;0.40;0.20;;;8.80;99.90;;;;;;5090319;28;20384;-70
2021/10/12 01:46:09;;;;;;;1.70;0.82;;;8.80;99.90;;;;;;5089461;28;20382;-70
2021/10/12 01:48:36;;;;;;;0.90;0.70;;;9.10;99.90;;;;;;5089657;28;20374;-70
2021/10/12 01:51:03;;;;;;;0.40;0.20;;;9.30;99.90;;;;;;5090023;28;20891;-70
2021/10/12 01:53:29;;;;;;;0.40;0.40;;;8.90;99.90;;;;;;5089312;28;21111;-71
2021/10/12 01:55:56;;;;;;;0.40;0.40;;;8.90;99.90;;;;;;5089729;28;20463;-71
2021/10/12 01:58:22;;;;;;;0.40;0.20;;;9.00;99.90;;;;;;5089300;28;20389;-71
2021/10/12 02:00:48;;;;;;;0.50;0.50;;;8.70;99.90;;;;;;5089946;28;20711;-71
2021/10/12 02:03:13;;;;;;;1.30;1.20;;;9.10;99.90;;;;;;5089576;28;20795;-70
2021/10/12 02:05:39;;;;;;;0.40;0.30;;;9.30;99.90;;;;;;5090211;28;20397;-70
2021/10/12 02:08:05;;;;;;;0.40;0.30;;;8.70;99.90;;;;;;5089804;28;20858;-70
2021/10/12 02:10:31;;;;;;;0.40;0.20;;;9.00;99.90;;;;;;5089315;28;20378;-71
2021/10/12 02:12:57;;;;;;;0.40;0.25;;;9.10;99.90;;;;;;5089695;28;20397;-70
2021/10/12 02:15:22;;;;;;;0.40;0.20;;;9.50;99.90;;;;;;5089348;28;20439;-71
2021/10/12 02:17:48;;;;;;;0.80;0.70;;;8.90;99.90;;;;;;5092836;28;20961;-70
2021/10/12 02:20:14;;;;;;;0.40;0.22;;;9.80;99.90;;;;;;5092861;28;20726;-70
2021/10/12 02:22:40;;;;;;;0.40;0.20;;;9.40;99.90;;;;;;5092862;28;20406;-70
2021/10/12 02:25:08;;;;;;;0.80;0.60;;;9.00;99.90;;;;;;5093347;28;20473;-70
2021/10/12 02:27:33;;;;;;;0.93;0.93;;;9.30;99.90;;;;;;5092605;28;20449;-70
2021/10/12 02:29:59;;;;;;;0.40;0.30;;;8.80;99.90;;;;;;5093446;28;20382;-70
2021/10/12 02:32:25;;;;;;;0.70;0.70;;;8.10;99.90;;;;;;5092349;28;20385;-70
2021/10/12 02:34:51;;;;;;;0.40;0.30;;;8.80;99.90;;;;;;5093158;28;20374;-71
2021/10/12 02:37:17;;;;;;;0.40;0.22;;;8.60;99.90;;;;;;5092404;28;20418;-70
2021/10/12 02:39:42;;;;;;;0.40;0.20;;;9.10;99.90;;;;;;5092770;28;20448;-71
2021/10/12 02:42:08;;;;;;;0.70;0.70;;;8.60;99.90;;;;;;5092601;28;20446;-70
2021/10/12 02:44:34;;;;;;;0.40;0.30;;;8.20;99.90;;;;;;5092403;28;20461;-70
2021/10/12 02:47:00;;;;;;;0.40;0.20;;;9.10;99.90;;;;;;5092543;28;20511;-70
2021/10/12 02:49:26;;;;;;;0.40;0.30;;;8.70;99.90;;;;;;5092168;28;20389;-70
2021/10/12 02:51:52;;;;;;;1.30;0.90;;;8.60;99.90;;;;;;5092457;28;20394;-70
2021/10/12 02:54:18;;;;;;;0.40;0.20;;;8.40;99.90;;;;;;5091967;28;20410;-71
2021/10/12 02:56:43;;;;;;;1.10;0.45;;;7.70;99.90;;;;;;5092403;28;20867;-70
2021/10/12 02:59:09;;;;;;;1.30;1.20;;;9.00;99.90;;;;;;5092500;28;20393;-70
2021/10/12 03:01:35;;;;;;;1.40;1.10;;;8.20;99.90;;;;;;5092098;28;20394;-70
2021/10/12 03:04:00;;;;;;;0.40;0.20;;;8.40;99.90;;;;;;5092566;28;20851;-70
2021/10/12 03:06:26;;;;;;;0.40;0.25;;;9.40;99.90;;;;;;5091992;28;20378;-71
2021/10/12 03:08:51;;;;;;;0.47;0.45;;;7.50;99.90;;;;;;5092069;28;20797;-71
2021/10/12 03:11:17;;;;;;;0.40;0.40;;;8.30;99.90;;;;;;5091819;28;20382;-70
2021/10/12 03:13:43;;;;;;;0.40;0.30;;;8.40;99.90;;;;;;5092217;28;20402;-70
2021/10/12 03:16:09;;;;;;;0.40;0.30;;;8.10;99.90;;;;;;5092451;28;20405;-70
2021/10/12 03:18:36;;;;;;;0.40;0.30;;;8.20;99.90;;;;;;5091595;28;20945;-70
2021/10/12 03:21:02;;;;;;;0.40;0.20;;;8.60;99.90;;;;;;5092298;28;20374;-70
2021/10/12 03:23:28;;;;;;;0.40;0.30;;;8.10;99.90;;;;;;5091732;28;20382;-71
2021/10/12 03:25:54;;;;;;;0.40;0.30;;;8.90;99.90;;;;;;5090824;28;20466;-70
2021/10/12 03:28:20;;;;;;;0.40;0.20;;;8.40;99.90;;;;;;5091310;28;20476;-70
2021/10/12 03:30:45;;;;;;;0.50;0.50;;;8.20;99.90;;;;;;5092010;28;20400;-70
2021/10/12 03:33:14;;;;;;;0.40;0.20;;;8.20;99.90;;;;;;5091933;28;20405;-70
2021/10/12 03:35:45;;;;;;;0.60;0.60;;;9.70;99.90;;;;;;5091375;28;20386;-70
2021/10/12 03:38:11;;;;;;;0.40;0.20;;;8.30;99.90;;;;;;5091830;28;20401;-70
2021/10/12 03:40:36;;;;;;;0.40;0.20;;;9.10;99.90;;;;;;5091217;28;20378;-70
2021/10/12 03:43:02;;;;;;;0.60;0.60;;;8.40;99.90;;;;;;5091717;28;20366;-70
2021/10/12 03:45:28;;;;;;;0.40;0.40;;;8.20;99.90;;;;;;5091129;28;20370;-70
2021/10/12 03:47:53;;;;;;;1.50;1.40;;;9.30;99.90;;;;;;5091605;28;20393;-70
2021/10/12 03:50:19;;;;;;;0.40;0.20;;;8.20;99.90;;;;;;5091091;28;20382;-70
2021/10/12 03:52:45;;;;;;;0.50;0.50;;;7.70;99.90;;;;;;5091255;28;20426;-72
2021/10/12 03:55:10;;;;;;;0.40;0.30;;;8.70;99.90;;;;;;5091253;28;20378;-72
2021/10/12 03:57:36;;;;;;;0.90;0.90;;;8.10;99.90;;;;;;5089575;28;20816;-72
2021/10/12 04:00:04;;;;;;;0.60;0.40;;;8.40;99.90;;;;;;5091378;28;20362;-70
2021/10/12 04:02:29;;;;;;;0.45;0.38;;;8.10;99.90;;;;;;5091400;28;20386;-70
2021/10/12 04:04:55;;;;;;;0.70;0.60;;;9.30;99.90;;;;;;5091771;28;20382;-70
2021/10/12 04:07:21;;;;;;;0.65;0.65;;;9.00;99.90;;;;;;5091405;28;20377;-73
2021/10/12 04:09:46;;;;;;;0.40;0.20;;;9.00;99.90;;;;;;5092060;28;20435;-70
2021/10/12 04:12:12;;;;;;;0.40;0.20;;;8.20;99.90;;;;;;5091921;28;20382;-70
2021/10/12 04:14:38;;;;;;;0.63;0.63;;;8.20;99.90;;;;;;5091276;28;20382;-70
2021/10/12 04:17:03;;;;;;;0.40;0.30;;;8.20;99.90;;;;;;5091851;28;20378;-70
2021/10/12 04:19:29;;;;;;;0.40;0.20;;;8.80;99.90;;;;;;5090969;28;20405;-70
2021/10/12 04:21:55;;;;;;;1.00;1.00;;;8.60;99.90;;;;;;5091688;28;20431;-70
2021/10/12 04:24:20;;;;;;;0.40;0.30;;;8.60;99.90;;;;;;5090757;28;20388;-70
2021/10/12 04:26:46;;;;;;;0.40;0.20;;;8.20;99.90;;;;;;5091771;28;20397;-70
2021/10/12 04:29:11;;;;;;;0.40;0.20;;;8.40;99.90;;;;;;5091276;28;20385;-70
2021/10/12 04:31:37;;;;;;;0.50;0.50;;;8.00;99.90;;;;;;5090771;28;20384;-70
2021/10/12 04:34:03;;;;;;;0.70;0.70;;;8.50;99.90;;;;;;5089962;28;20409;-71
2021/10/12 04:36:28;;;;;;;1.40;1.20;;;8.00;99.90;;;;;;5090463;28;20460;-71
2021/10/12 04:38:54;;;;;;;1.90;1.00;;;8.00;99.90;;;;;;5090527;28;20378;-70
2021/10/12 04:41:20;;;;;;;0.40;0.30;;;8.40;99.90;;;;;;5090454;28;20394;-71
2021/10/12 04:43:45;;;;;;;0.40;0.40;;;8.00;99.90;;;;;;5090961;28;20409;-71
2021/10/12 04:46:14;;;;;;;0.75;0.75;;;8.50;99.90;;;;;;5090740;28;20389;-72
2021/10/12 04:48:40;;;;;;;0.40;0.40;;;8.20;99.90;;;;;;5089964;28;20854;-71
2021/10/12 04:51:05;;;;;;;0.40;0.40;;;8.30;99.90;;;;;;5090813;28;20393;-70
2021/10/12 04:53:31;;;;;;;0.60;0.60;;;8.70;99.90;;;;;;5090044;28;20815;-70
2021/10/12 04:55:57;;;;;;;0.40;0.20;;;9.80;99.90;;;;;;5090678;28;20370;-70
2021/10/12 04:58:22;;;;;;;0.40;0.30;;;7.80;99.90;;;;;;5090439;28;20865;-71
2021/10/12 05:00:48;;;;;;;0.40;0.20;;;8.20;99.90;;;;;;5090636;28;20473;-71
2021/10/12 05:03:14;;;;;;;0.40;0.30;;;9.10;99.90;;;;;;5091100;28;20385;-70
2021/10/12 05:05:40;;;;;;;1.00;0.90;;;8.50;99.90;;;;;;5090441;28;20383;-71
2021/10/12 05:08:07;;;;;;;1.00;1.00;;;8.40;99.90;;;;;;5091146;28;20597;-71
2021/10/12 05:10:33;;;;;;;0.80;0.80;;;8.20;99.90;;;;;;5089881;28;20378;-72
2021/10/12 05:13:00;;;;;;;1.17;0.80;;;8.20;99.90;;;;;;5090965;28;20913;-71
2021/10/12 05:15:28;;;;;;;1.00;0.90;;;8.30;99.90;;;;;;5082315;28;20382;-72
2021/10/12 05:17:54;;;;;;;0.40;0.20;;;8.20;99.90;;;;;;5090689;28;20465;-71
2021/10/12 05:20:20;;;;;;;0.40;0.20;;;8.10;99.90;;;;;;5090889;28;20382;-71
2021/10/12 05:22:47;;;;;;;0.45;0.38;;;8.60;99.90;;;;;;5089172;28;20398;-71
2021/10/12 05:25:13;;;;;;;0.40;0.25;;;8.40;99.90;;;;;;5090038;28;20382;-71
2021/10/12 05:27:39;;;;;;;0.90;0.90;;;8.40;99.90;;;;;;5089940;28;20565;-71
2021/10/12 05:30:11;;;;;;;0.52;0.52;;;8.50;99.90;;;;;;5090468;28;20432;-72
2021/10/12 05:32:38;;;;;;;0.40;0.20;;;8.40;99.90;;;;;;5090112;28;20414;-72
2021/10/12 05:35:05;;;;;;;0.40;0.30;;;8.80;99.90;;;;;;5090163;28;20382;-72
2021/10/12 05:37:31;;;;;;;0.40;0.25;;;8.30;99.90;;;;;;5089919;28;20370;-72
2021/10/12 05:39:57;;;;;;;1.30;0.80;;;9.70;99.90;;;;;;5090398;28;20783;-72
2021/10/12 05:42:23;;;;;;;0.40;0.40;;;8.30;99.90;;;;;;5089893;28;20378;-72
2021/10/12 05:44:48;;;;;;;0.40;0.20;;;8.90;99.90;;;;;;5089512;28;20374;-72
2021/10/12 05:47:14;;;;;;;0.40;0.30;;;9.10;99.90;;;;;;5089965;28;20415;-72
2021/10/12 05:49:41;;;;;;;1.00;0.90;;;8.30;99.90;;;;;;5089541;28;20788;-72
2021/10/12 05:52:07;;;;;;;0.40;0.22;;;8.20;99.90;;;;;;5092915;28;20409;-71
2021/10/12 05:54:37;;;;;;;0.40;0.40;;;8.60;99.90;;;;;;5093639;28;20460;-73
2021/10/12 05:57:06;;;;;;;0.40;0.40;;;8.20;99.90;;;;;;5094574;28;20718;-72
2021/10/12 05:59:35;;;;;;;0.60;0.60;;;8.10;99.90;;;;;;5093910;28;20402;-72
2021/10/12 06:02:00;;;;;;;0.60;0.60;;;8.10;99.90;;;;;;5094037;28;20781;-72
2021/10/12 06:04:26;;;;;;;1.10;0.70;;;8.50;99.90;;;;;;5093414;28;20385;-74
2021/10/12 06:06:54;;;;;;;0.40;0.20;;;8.10;99.90;;;;;;5093996;28;20370;-73
2021/10/12 06:09:19;;;;;;;0.40;0.40;;;8.60;99.90;;;;;;5091335;28;20374;-72
2021/10/12 06:11:45;;;;;;;0.40;0.20;;;8.50;99.90;;;;;;5092892;28;20390;-72
2021/10/12 06:14:11;;;;;;;0.40;0.30;;;8.30;99.90;;;;;;5093704;28;20905;-72
2021/10/12 06:16:36;;;;;;;0.40;0.20;;;9.10;99.90;;;;;;5093400;28;20420;-72
2021/10/12 06:19:02;;;;;;;0.40;0.30;;;8.30;99.90;;;;;;5092380;28;20386;-73
2021/10/12 06:21:28;;;;;;;0.40;0.20;;;8.40;99.90;;;;;;5093184;28;20416;-74
2021/10/12 06:23:53;;;;;;;0.40;0.40;;;8.60;99.90;;;;;;5093132;28;20396;-73
2021/10/12 06:26:19;;;;;;;0.50;0.50;;;8.30;99.90;;;;;;5093590;28;20839;-73
2021/10/12 06:28:45;;;;;;;1.10;0.80;;;8.40;99.90;;;;;;5092923;28;20889;-72
2021/10/12 06:31:13;;;;;;;0.73;0.73;;;9.30;99.90;;;;;;5093865;28;20374;-73
2021/10/12 06:33:38;;;;;;;0.60;0.60;;;8.50;99.90;;;;;;5093184;28;20406;-73
2021/10/12 06:36:04;;;;;;;1.10;0.50;;;8.70;99.90;;;;;;5093352;28;20382;-73
2021/10/12 06:38:30;;;;;;;0.40;0.30;;;8.60;99.90;;;;;;5091658;28;20468;-73
2021/10/12 06:40:55;;;;;;;0.40;0.30;;;8.00;99.90;;;;;;5093577;28;20389;-73
2021/10/12 06:43:21;;;;;;;0.50;0.50;;;9.40;99.90;;;;;;5093648;28;20405;-73
2021/10/12 06:45:47;;;;;;;0.40;0.40;;;8.70;99.90;;;;;;5092714;28;20451;-73
2021/10/12 06:48:12;;;;;;;0.40;0.20;;;8.60;99.90;;;;;;5093270;28;20469;-73
2021/10/12 06:50:38;;;;;;;0.50;0.50;;;9.90;99.90;;;;;;5093048;28;20416;-73
2021/10/12 06:53:04;;;;;;;1.00;1.00;;;8.40;99.90;;;;;;5093038;28;20778;-73
2021/10/12 06:55:30;;;;;;;0.40;0.20;;;8.70;99.90;;;;;;5092440;28;20386;-73
2021/10/12 06:57:56;;;;;;;0.40;0.22;;;10.20;99.90;;;;;;5093542;28;20370;-73
2021/10/12 07:00:21;;;;;;;0.40;0.20;;;8.70;99.90;;;;;;5093318;28;20440;-73
2021/10/12 07:02:48;;;;;;;0.40;0.25;;;8.70;99.90;;;;;;5092266;28;20657;-73
2021/10/12 07:05:16;;;;;;;0.50;0.50;;;8.70;99.90;;;;;;5093277;28;20382;-73
2021/10/12 07:07:42;;;;;;;0.40;0.20;;;8.10;99.90;;;;;;5092685;28;20374;-73
2021/10/12 07:10:10;;;;;;;0.40;0.20;;;9.00;99.90;;;;;;5093185;28;20923;-73
2021/10/12 07:12:36;;;;;;;0.80;0.80;;;8.90;99.90;;;;;;5092606;28;20382;-73
2021/10/12 07:15:04;;;;;;;0.40;0.20;;;9.50;99.90;;;;;;5093375;28;20453;-73
2021/10/12 07:17:29;;;;;;;0.40;0.20;;;8.70;99.90;;;;;;5092441;28;20378;-72
2021/10/12 07:19:55;;;;;;;0.40;0.30;;;9.00;99.90;;;;;;5092667;28;20843;-73
2021/10/12 07:22:24;;;;;;;0.40;0.30;;;9.00;99.90;;;;;;5092928;28;20397;-72
2021/10/12 07:24:51;;;;;;;0.40;0.30;;;9.30;99.90;;;;;;5091991;28;20870;-73
2021/10/12 07:27:17;;;;;;;0.60;0.60;;;9.20;99.90;;;;;;5092777;28;20421;-72
2021/10/12 07:29:46;;;;;;;1.00;0.60;;;9.60;99.90;;;;;;5092514;28;20410;-73
2021/10/12 07:32:13;;;;;;;0.50;0.50;;;8.90;99.90;;;;;;5092568;28;20446;-72
2021/10/12 07:34:39;;;;;;;0.40;0.20;;;10.80;99.90;;;;;;5091989;28;20413;-73
2021/10/12 07:37:05;;;;;;;0.40;0.20;;;9.70;99.90;;;;;;5092658;28;20885;-73
2021/10/12 07:39:30;;;;;;;0.40;0.30;;;9.90;99.90;;;;;;5090797;28;20378;-73
2021/10/12 07:41:56;;;;;;;0.60;0.50;;;10.10;99.90;;;;;;5092459;28;20382;-74
2021/10/12 07:44:21;;;;;;;0.40;0.20;;;10.10;99.90;;;;;;5092544;28;20381;-73
2021/10/12 07:46:47;;;;;;;0.40;0.20;;;10.20;99.90;;;;;;5091425;28;20390;-73
2021/10/12 07:49:13;;;;;;;0.40;0.20;;;10.50;99.90;;;;;;5092890;28;20737;-73
2021/10/12 07:51:39;;;;;;;0.40;0.20;;;10.10;99.90;;;;;;5091724;28;20745;-73
2021/10/12 07:54:10;;;;;;;0.40;0.37;;;10.40;99.90;;;;;;5090650;28;20464;-73
2021/10/12 07:56:36;;;;;;;0.40;0.22;;;10.60;99.90;;;;;;5091659;28;20922;-73
2021/10/12 07:59:07;;;;;;;0.50;0.50;;;10.10;99.90;;;;;;5092248;28;20457;-73
2021/10/12 08:01:33;;;;;;;0.40;0.30;;;10.40;99.90;;;;;;5091585;28;20442;-73
2021/10/12 08:04:00;;;;;;;0.40;0.30;;;10.20;99.90;;;;;;5092052;28;20430;-73
2021/10/12 08:06:26;;;;;;;0.70;0.55;;;10.30;99.90;;;;;;5092098;28;20461;-72
2021/10/12 08:08:53;;;;;;;0.40;0.30;;;10.20;99.90;;;;;;5091457;28;20712;-73
2021/10/12 08:11:23;;;;;;;0.40;0.20;;;10.50;99.90;;;;;;5092118;28;20374;-72
2021/10/12 08:13:51;;;;;;;1.70;0.98;;;11.00;99.90;;;;;;5090652;28;20398;-73
2021/10/12 08:16:20;;;;;;;0.40;0.30;;;10.70;99.90;;;;;;5091909;28;20386;-73
2021/10/12 08:18:46;;;;;;;0.40;0.20;;;11.10;99.90;;;;;;5091311;28;20869;-72
2021/10/12 08:21:13;;;;;;;0.60;0.60;;;10.40;99.90;;;;;;5091433;28;20382;-72
2021/10/12 08:23:38;;;;;;;0.63;0.60;;;10.20;99.90;;;;;;5091160;28;20378;-73
2021/10/12 08:26:04;;;;;;;0.40;0.20;;;10.10;99.90;;;;;;5091766;28;20881;-72
2021/10/12 08:28:30;;;;;;;0.40;0.30;;;10.70;99.90;;;;;;5091800;28;20474;-72
2021/10/12 08:30:55;;;;;;;0.40;0.40;;;10.30;99.90;;;;;;5091051;28;20838;-72
2021/10/12 08:33:21;;;;;;;1.40;0.65;;;10.20;99.90;;;;;;5091619;28;20412;-72
2021/10/12 08:35:47;;;;;;;0.40;0.40;;;10.20;99.90;;;;;;5090996;28;20374;-72
2021/10/12 08:38:18;;;;;;;0.40;0.30;;;11.00;99.90;;;;;;5091572;28;20451;-72
2021/10/12 08:40:45;;;;;;;0.40;0.20;;;10.40;99.90;;;;;;5091063;28;20410;-72
2021/10/12 08:43:11;;;;;;;0.40;0.30;;;10.40;99.90;;;;;;5091157;28;20377;-72
2021/10/12 08:45:37;;;;;;;0.40;0.20;;;10.50;99.90;;;;;;5089605;28;20465;-73
2021/10/12 08:48:06;;;;;;;0.40;0.38;;;10.60;99.90;;;;;;5091438;28;20715;-73
2021/10/12 08:50:33;;;;;;;0.85;0.82;;;10.80;99.90;;;;;;5091552;28;20378;-72
2021/10/12 08:53:01;;;;;;;0.40;0.40;;;10.80;99.90;;;;;;5090012;28;20504;-72
2021/10/12 08:55:28;;;;;;;0.80;0.50;;;10.80;99.90;;;;;;5091389;28;20435;-72
2021/10/12 08:57:53;;;;;;;0.40;0.20;;;10.80;99.90;;;;;;5090387;28;20933;-73
2021/10/12 09:00:21;;;;;;;0.70;0.50;;;10.90;99.90;;;;;;5091018;28;20466;-73
2021/10/12 09:03:16;;;;;;;0.40;0.25;;;10.80;99.90;;;;;;5090374;28;20382;-73
2021/10/12 09:05:53;;;;;;;0.40;0.20;;;10.90;99.90;;;;;;5090740;28;20421;-73
2021/10/12 09:08:26;;;;;;;0.80;0.80;;;10.90;99.90;;;;;;5091366;28;20587;-73
2021/10/12 09:10:52;;;;;;;0.40;0.30;;;11.10;99.90;;;;;;5090680;28;20465;-72
2021/10/12 09:13:18;;;;;;;0.40;0.40;;;11.00;99.90;;;;;;5090967;28;20413;-72
2021/10/12 09:16:07;;;;;;;0.50;0.50;;;11.40;99.90;;;;;;5090558;28;20385;-73
2021/10/12 09:18:50;;;;;;;0.40;0.30;;;11.30;99.90;;;;;;5091133;28;20366;-72
2021/10/12 09:21:26;;;;;;;3.22;0.80;;;11.50;99.90;;;;;;5091090;28;20447;-73
2021/10/12 09:24:01;;;;;;;0.40;0.20;;;11.70;99.90;;;;;;5090257;28;20393;-72
2021/10/12 09:26:31;;;;;;;0.40;0.30;;;11.70;99.90;;;;;;5093990;28;20460;-73
2021/10/12 09:28:59;;;;;;;1.90;1.00;;;11.50;99.90;;;;;;5094308;28;20873;-73
2021/10/12 09:31:43;;;;;;;0.40;0.30;;;11.60;99.90;;;;;;5095136;28;20378;-72
2021/10/12 09:34:10;;;;;;;0.40;0.40;;;11.60;99.90;;;;;;5094995;28;20406;-72
2021/10/12 09:36:48;;;;;;;0.40;0.20;;;11.80;99.90;;;;;;5095036;28;20381;-73
2021/10/12 09:39:27;;;;;;;0.40;0.30;;;12.00;99.90;;;;;;5095010;28;20405;-73
2021/10/12 09:42:04;;;;;;;0.40;0.20;;;12.00;99.90;;;;;;5094123;28;20380;-73
2021/10/12 09:44:30;;;;;;;0.40;0.20;;;12.10;99.90;;;;;;5094859;28;20380;-73
2021/10/12 09:47:13;;;;;;;0.40;0.30;;;12.10;99.90;;;;;;5093579;28;20846;-73
2021/10/12 09:49:40;;;;;;;0.40;0.30;;;11.90;99.90;;;;;;5093971;28;20374;-73
2021/10/12 09:52:14;;;;;;;1.00;0.90;;;12.30;99.90;;;;;;5094285;28;20438;-73
2021/10/12 09:54:55;;;;;;;0.40;0.20;;;11.80;99.90;;;;;;5093943;28;20410;-73
2021/10/12 09:57:23;;;;;;;0.60;0.60;;;11.50;99.90;;;;;;5094370;28;20870;-73
2021/10/12 09:59:50;;;;;;;0.40;0.20;;;11.80;99.90;;;;;;5093895;28;20435;-73
2021/10/12 10:02:18;;;;;;;0.50;0.50;;;12.10;99.90;;;;;;5094205;28;20374;-73
2021/10/12 10:04:43;;;;;;;0.60;0.57;;;12.50;99.90;;;;;;5093551;28;20897;-73
2021/10/12 10:07:20;;;;;;;0.70;0.70;;;12.20;99.90;;;;;;5093915;28;20382;-72
2021/10/12 10:09:48;;;;;;;0.40;0.40;;;12.50;99.90;;;;;;5092487;28;20897;-72
2021/10/12 10:12:15;;;;;;;0.40;0.30;;;12.30;99.90;;;;;;5094076;28;20370;-73
2021/10/12 10:14:41;;;;;;;3.30;1.20;;;12.20;99.90;;;;;;5093529;28;20409;-74
2021/10/12 10:17:07;;;;;;;0.40;0.40;;;12.30;99.90;;;;;;5094036;28;20493;-73
2021/10/12 10:19:36;;;;;;;0.40;0.30;;;12.30;99.90;;;;;;5094040;28;20390;-73
2021/10/12 10:22:04;;;;;;;1.30;1.00;;;12.40;99.90;;;;;;5093512;28;20386;-73
2021/10/12 10:24:44;;;;;;;0.90;0.90;;;12.30;99.90;;;;;;5093729;28;20477;-73
2021/10/12 10:27:33;;;;;;;0.40;0.20;;;12.40;99.90;;;;;;5094038;28;20382;-73
2021/10/12 10:30:22;;;;;;;1.30;0.70;;;12.30;99.90;;;;;;5092008;28;20799;-73
2021/10/12 10:32:57;;;;;;;0.40;0.30;;;12.70;99.90;;;;;;5093211;28;20477;-73
2021/10/12 10:35:35;;;;;;;0.60;0.60;;;12.60;99.90;;;;;;5094066;28;20772;-73
2021/10/12 10:38:19;;;;;;;0.50;0.50;;;12.60;99.90;;;;;;5092178;28;20892;-73
2021/10/12 10:40:50;;;;;;;0.40;0.30;;;12.70;99.90;;;;;;5093299;28;20406;-74
2021/10/12 10:43:15;;;;;;;0.40;0.30;;;12.70;99.90;;;;;;5093394;28;20715;-73
2021/10/12 10:45:48;;;;;;;1.20;0.60;;;12.60;99.90;;;;;;5093341;28;20393;-74
2021/10/12 10:48:19;;;;;;;0.50;0.50;;;12.70;99.90;;;;;;5093716;28;20394;-73
2021/10/12 10:50:46;;;;;;;1.30;1.10;;;12.40;99.90;;;;;;5093026;28;20583;-73
2021/10/12 10:53:12;;;;;;;0.40;0.30;;;12.70;99.90;;;;;;5091695;28;20475;-73
2021/10/12 10:56:00;;;;;;;1.30;0.60;;;12.80;99.90;;;;;;5092301;28;20735;-73
2021/10/12 10:58:26;;;;;;;0.75;0.65;;;12.90;99.90;;;;;;5093625;28;20382;-73
2021/10/12 11:00:53;;;;;;;0.57;0.47;;;12.80;99.90;;;;;;5092504;28;20381;-73
2021/10/12 11:03:28;;;;;;;0.40;0.20;;;12.80;99.90;;;;;;5093236;28;20386;-73
2021/10/12 11:05:54;;;;;;;0.40;0.20;;;12.60;99.90;;;;;;5091353;28;20798;-73
2021/10/12 11:08:22;;;;;;;0.40;0.20;;;12.50;99.90;;;;;;5091882;28;20815;-73
2021/10/12 11:11:02;;;;;;;0.40;0.30;;;12.40;99.90;;;;;;5092625;28;20381;-73
2021/10/12 11:13:35;;;;;;;1.40;0.60;;;12.50;99.90;;;;;;5092953;28;20403;-74
2021/10/12 11:16:03;;;;;;;0.40;0.30;;;12.50;99.90;;;;;;5092586;28;20374;-74
2021/10/12 11:18:29;;;;;;;0.40;0.30;;;12.20;99.90;;;;;;5092684;28;20486;-74
2021/10/12 11:21:02;;;;;;;0.40;0.25;;;12.40;99.90;;;;;;5092221;28;20374;-74
2021/10/12 11:23:38;;;;;;;0.40;0.30;;;12.30;99.90;;;;;;5093097;28;20386;-74
2021/10/12 11:26:07;;;;;;;0.50;0.50;;;12.40;99.90;;;;;;5092369;28;20411;-74
2021/10/12 11:28:35;;;;;;;0.70;0.70;;;12.50;99.90;;;;;;5092771;28;20470;-74
2021/10/12 11:31:06;;;;;;;1.83;1.73;;;12.60;99.90;;;;;;5092261;28;20406;-74
2021/10/12 11:33:37;;;;;;;0.70;0.70;;;12.60;99.90;;;;;;5092660;28;20405;-73
2021/10/12 11:36:06;;;;;;;0.40;0.40;;;12.60;99.90;;;;;;5092026;28;20454;-74
2021/10/12 11:38:35;;;;;;;0.40;0.20;;;12.50;99.90;;;;;;5092397;28;20378;-74
2021/10/12 11:41:12;;;;;;;0.50;0.50;;;12.40;99.90;;;;;;5090443;28;20397;-74
2021/10/12 11:43:40;;;;;;;0.40;0.30;;;12.20;99.90;;;;;;5092532;28;20409;-74
2021/10/12 11:46:06;;;;;;;1.70;0.80;;;12.40;99.90;;;;;;5090617;28;20390;-73
2021/10/12 11:48:39;;;;;;;0.40;0.30;;;12.50;99.90;;;;;;5092327;28;20375;-73
2021/10/12 11:51:27;;;;;;;0.40;0.30;;;12.70;99.90;;;;;;5091740;28;20617;-74
2021/10/12 11:53:55;;;;;;;0.50;0.40;;;12.90;99.90;;;;;;5091447;28;20414;-74
2021/10/12 11:56:22;;;;;;;0.40;0.20;;;12.80;99.90;;;;;;5092544;28;20387;-73
2021/10/12 11:58:55;;;;;;;0.40;0.30;;;12.90;99.90;;;;;;5091651;28;20374;-73
2021/10/12 12:01:30;;;;;;;0.40;0.30;;;12.90;99.90;;;;;;5092112;28;20382;-73
2021/10/12 12:03:57;;;;;;;0.63;0.43;;;12.90;99.90;;;;;;5091472;28;20389;-73
2021/10/12 12:06:27;;;;;;;1.80;0.90;;;12.80;99.90;;;;;;5092215;28;20439;-73
2021/10/12 12:08:54;;;;;;;1.60;1.00;;;12.80;99.90;;;;;;5091438;28;20469;-73
2021/10/12 12:11:25;;;;;;;0.40;0.30;;;12.70;99.90;;;;;;5090846;28;20784;-73
2021/10/12 12:13:53;;;;;;;0.68;0.52;;;12.80;99.90;;;;;;5091085;28;20432;-73
2021/10/12 12:16:20;;;;;;;0.40;0.30;;;12.90;99.90;;;;;;5091979;28;20382;-73
2021/10/12 12:18:45;;;;;;;0.40;0.30;;;13.00;99.90;;;;;;5092022;28;20382;-73
2021/10/12 12:21:11;;;;;;;0.40;0.30;;;12.90;99.90;;;;;;5091307;28;20393;-73
2021/10/12 12:23:47;;;;;;;0.40;0.30;;;12.90;99.90;;;;;;5091418;28;20390;-73
2021/10/12 12:26:24;;;;;;;0.40;0.30;;;13.10;99.90;;;;;;5091791;28;20389;-73
2021/10/12 12:28:50;;;;;;;0.90;0.60;;;13.20;99.90;;;;;;5090854;28;20850;-73
2021/10/12 12:31:18;;;;;;;0.40;0.30;;;13.20;99.90;;;;;;5091681;28;20435;-73
2021/10/12 12:33:45;;;;;;;0.40;0.30;;;13.60;99.90;;;;;;5091441;28;20405;-73
2021/10/12 12:36:11;;;;;;;0.40;0.20;;;13.60;99.90;;;;;;5091008;28;20384;-73
2021/10/12 12:38:37;;;;;;;0.40;0.30;;;13.10;99.90;;;;;;5091604;28;20525;-73
2021/10/12 12:41:22;;;;;;;0.60;0.50;;;13.30;99.90;;;;;;5090957;28;20531;-73
2021/10/12 12:43:51;;;;;;;0.50;0.40;;;13.30;99.90;;;;;;5091369;28;20382;-73
2021/10/12 12:46:21;;;;;;;0.40;0.40;;;13.40;99.90;;;;;;5091159;28;20856;-73
2021/10/12 12:49:08;;;;;;;0.40;0.20;;;13.40;99.90;;;;;;5091429;28;20735;-74
2021/10/12 12:51:46;;;;;;;0.40;0.30;;;13.30;99.90;;;;;;5090994;28;20433;-72
2021/10/12 12:54:41;;;;;;;0.40;0.30;;;13.20;99.90;;;;;;5090550;28;20414;-72
2021/10/12 12:57:17;;;;;;;0.40;0.20;;;13.50;99.90;;;;;;5090689;28;20389;-72